createdAt,value
2023-05-23T00:02:17.626Z,15.50
2023-05-23T00:04:45.506Z,14.63
2023-05-23T00:07:13.344Z,14.57
2023-05-23T00:09:41.250Z,15.67
2023-05-23T00:12:09.569Z,14.17
2023-05-23T00:14:40.325Z,14.27
2023-05-23T00:17:10.720Z,15.47
2023-05-23T00:19:38.792Z,16.83
2023-05-23T00:22:06.686Z,19.47
2023-05-23T00:24:34.504Z,15.80
2023-05-23T00:27:02.285Z,15.13
2023-05-23T00:29:30.222Z,15.07
2023-05-23T00:31:59.313Z,17.20
2023-05-23T00:34:27.048Z,16.20
2023-05-23T00:36:54.870Z,16.70
2023-05-23T00:39:22.707Z,18.33
2023-05-23T00:41:52.983Z,17.37
2023-05-23T00:44:21.720Z,17.40
2023-05-23T00:46:53.479Z,19.00
2023-05-23T00:49:23.090Z,17.03
2023-05-23T00:51:51.702Z,17.73
2023-05-23T00:54:22.116Z,17.80
2023-05-23T00:56:50.008Z,19.00
2023-05-23T00:59:18.772Z,22.00
2023-05-23T01:01:49.823Z,23.10
2023-05-23T01:04:20.112Z,22.43
2023-05-23T01:06:49.637Z,23.43
2023-05-23T01:09:18.358Z,24.50
2023-05-23T01:11:52.049Z,23.47
2023-05-23T01:14:25.401Z,23.43
2023-05-23T01:16:59.146Z,26.43
2023-05-23T01:19:48.612Z,25.90
2023-05-23T01:22:24.046Z,23.90
2023-05-23T01:24:57.201Z,23.67
2023-05-23T01:27:40.213Z,23.00
2023-05-23T01:30:10.991Z,25.60
2023-05-23T01:32:38.948Z,24.40
2023-05-23T01:35:08.079Z,22.63
2023-05-23T01:37:38.410Z,21.90
2023-05-23T01:40:07.448Z,22.17
2023-05-23T01:42:35.779Z,23.80
2023-05-23T01:45:06.788Z,23.30
2023-05-23T01:47:36.024Z,25.93
2023-05-23T01:50:06.638Z,25.10
2023-05-23T01:52:35.541Z,24.73
2023-05-23T01:55:04.671Z,25.13
2023-05-23T01:57:33.001Z,24.13
2023-05-23T02:00:01.686Z,24.73
2023-05-23T02:02:32.689Z,24.73
2023-05-23T02:05:01.035Z,24.83
2023-05-23T02:07:30.731Z,32.23
2023-05-23T02:09:59.244Z,27.00
2023-05-23T02:12:27.358Z,28.73
2023-05-23T02:14:56.533Z,34.17
2023-05-23T02:17:25.173Z,40.20
2023-05-23T02:19:54.904Z,44.20
2023-05-23T02:22:25.184Z,45.70
2023-05-23T02:24:54.930Z,43.93
2023-05-23T02:27:23.240Z,43.83
2023-05-23T02:29:51.274Z,43.87
2023-05-23T02:32:19.359Z,47.03
2023-05-23T02:34:50.434Z,49.13
2023-05-23T02:37:20.115Z,51.23
2023-05-23T02:39:49.901Z,54.03
2023-05-23T02:42:18.232Z,56.17
2023-05-23T02:44:46.797Z,56.20
2023-05-23T02:47:17.155Z,54.20
2023-05-23T02:49:45.577Z,58.60
2023-05-23T02:52:14.026Z,58.27
2023-05-23T02:54:43.807Z,62.67
2023-05-23T02:57:12.239Z,70.90
2023-05-23T02:59:42.580Z,67.30
2023-05-23T03:02:11.646Z,65.50
2023-05-23T03:04:40.109Z,65.10
2023-05-23T03:07:14.068Z,70.97
2023-05-23T03:09:50.380Z,75.00
2023-05-23T03:12:19.319Z,77.23
2023-05-23T03:14:47.937Z,79.97
2023-05-23T03:17:17.002Z,75.00
2023-05-23T03:19:45.449Z,69.10
2023-05-23T03:22:13.756Z,70.63
2023-05-23T03:24:44.034Z,75.57
2023-05-23T03:27:14.266Z,68.93
2023-05-23T03:29:42.661Z,74.83
2023-05-23T03:32:11.998Z,70.37
2023-05-23T03:34:43.559Z,72.47
2023-05-23T03:37:13.036Z,69.63
2023-05-23T03:39:41.890Z,70.90
2023-05-23T03:42:10.064Z,72.43
2023-05-23T03:44:39.969Z,61.00
2023-05-23T03:47:08.963Z,51.63
2023-05-23T03:49:40.064Z,61.53
2023-05-23T03:52:08.718Z,61.40
2023-05-23T03:54:37.478Z,64.90
2023-05-23T03:57:07.220Z,58.40
2023-05-23T03:59:36.814Z,52.30
2023-05-23T04:02:11.726Z,57.37
2023-05-23T04:04:40.519Z,52.03
2023-05-23T04:07:10.221Z,50.70
2023-05-23T04:09:40.634Z,62.77
2023-05-23T04:12:12.658Z,45.70
2023-05-23T04:14:41.183Z,44.27
2023-05-23T04:17:12.216Z,46.87
2023-05-23T04:19:41.103Z,43.63
2023-05-23T04:22:09.630Z,46.37
2023-05-23T04:24:39.176Z,60.30
2023-05-23T04:27:07.865Z,62.53
2023-05-23T04:29:36.315Z,52.17
2023-05-23T04:32:06.389Z,51.17
2023-05-23T04:34:38.001Z,52.03
2023-05-23T04:37:07.285Z,55.47
2023-05-23T04:39:37.281Z,60.47
2023-05-23T04:42:29.824Z,55.57
2023-05-23T04:45:13.164Z,60.63
2023-05-23T04:48:01.344Z,52.50
2023-05-23T04:50:40.566Z,53.90
2023-05-23T04:53:08.787Z,72.50
2023-05-23T04:55:38.166Z,61.93
2023-05-23T04:58:09.851Z,66.30
2023-05-23T05:00:38.002Z,56.90
2023-05-23T05:03:06.973Z,63.80
2023-05-23T05:05:35.149Z,64.13
2023-05-23T05:08:04.669Z,73.53
2023-05-23T05:10:32.883Z,61.47
2023-05-23T05:13:01.305Z,66.60
2023-05-23T05:15:35.825Z,63.27
2023-05-23T05:18:04.313Z,62.00
2023-05-23T05:20:33.101Z,75.63
2023-05-23T05:23:02.415Z,68.93
2023-05-23T05:25:32.671Z,76.90
2023-05-23T05:28:03.343Z,62.07
2023-05-23T05:30:33.829Z,68.83
2023-05-23T05:33:06.976Z,61.50
2023-05-23T05:35:35.819Z,68.63
2023-05-23T05:38:05.449Z,67.20
2023-05-23T05:40:34.839Z,65.87
2023-05-23T05:43:03.547Z,64.10
2023-05-23T05:45:31.706Z,74.33
2023-05-23T05:48:00.334Z,68.27
2023-05-23T05:50:28.925Z,74.83
2023-05-23T05:52:57.407Z,82.57
2023-05-23T05:55:26.164Z,76.07
2023-05-23T05:57:57.956Z,70.13
2023-05-23T06:00:27.570Z,62.20
2023-05-23T06:02:59.234Z,74.97
2023-05-23T06:05:44.053Z,70.10
2023-05-23T06:08:12.806Z,85.43
2023-05-23T06:10:41.063Z,67.27
2023-05-23T06:13:11.644Z,100.63
2023-05-23T06:15:41.829Z,97.47
2023-05-23T06:18:09.990Z,86.33
2023-05-23T06:20:38.306Z,86.13
2023-05-23T06:23:09.989Z,85.30
2023-05-23T06:25:40.996Z,88.10
2023-05-23T06:28:09.407Z,94.17
2023-05-23T06:30:39.235Z,113.50
2023-05-23T06:33:09.003Z,75.67
2023-05-23T06:35:37.108Z,78.47
2023-05-23T06:38:05.028Z,85.10
2023-05-23T06:40:33.212Z,62.07
2023-05-23T06:43:01.307Z,64.43
2023-05-23T06:45:41.932Z,63.33
2023-05-23T06:48:14.546Z,77.97
2023-05-23T06:50:43.410Z,76.67
2023-05-23T06:53:18.860Z,86.87
2023-05-23T06:55:48.027Z,84.73
2023-05-23T06:58:19.261Z,78.13
2023-05-23T07:00:49.445Z,69.03
2023-05-23T07:03:23.583Z,65.47
2023-05-23T07:05:52.372Z,52.53
2023-05-23T07:08:23.381Z,43.70
2023-05-23T07:11:02.901Z,43.30
2023-05-23T07:13:54.327Z,39.57
2023-05-23T07:16:43.053Z,34.50
2023-05-23T07:19:18.418Z,34.07
2023-05-23T07:21:49.875Z,27.87
2023-05-23T07:24:19.677Z,26.20
2023-05-23T07:26:48.797Z,23.80
2023-05-23T07:29:16.893Z,24.60
2023-05-23T07:31:48.989Z,20.97
2023-05-23T07:34:17.116Z,20.97
2023-05-23T07:36:52.760Z,20.70
2023-05-23T07:39:24.406Z,16.30
2023-05-23T07:41:53.887Z,16.40
2023-05-23T07:44:24.882Z,16.20
2023-05-23T07:46:55.951Z,18.17
2023-05-23T07:49:24.754Z,15.30
2023-05-23T07:51:54.271Z,17.17
2023-05-23T07:54:22.429Z,14.87
2023-05-23T07:56:54.706Z,15.10
2023-05-23T07:59:22.725Z,14.90
2023-05-23T08:01:52.515Z,13.10
2023-05-23T08:04:23.871Z,16.00
2023-05-23T08:07:04.888Z,11.90
2023-05-23T08:09:59.746Z,11.80
2023-05-23T08:12:27.382Z,12.27
2023-05-23T08:15:07.027Z,9.33
2023-05-23T08:17:41.396Z,16.67
2023-05-23T08:20:12.221Z,9.90
2023-05-23T08:22:40.164Z,11.67
2023-05-23T08:25:08.257Z,12.80
2023-05-23T08:27:38.603Z,13.27
2023-05-23T08:30:23.117Z,14.77
2023-05-23T08:32:51.570Z,9.67
2023-05-23T08:35:20.681Z,9.87
2023-05-23T08:37:48.704Z,14.30
2023-05-23T08:40:22.101Z,8.30
2023-05-23T08:42:58.162Z,10.10
2023-05-23T08:45:26.410Z,11.47
2023-05-23T08:47:55.788Z,8.20
2023-05-23T08:50:29.586Z,7.93
2023-05-23T08:52:59.843Z,11.50
2023-05-23T08:55:29.921Z,8.57
2023-05-23T08:58:00.244Z,9.00
2023-05-23T09:00:36.637Z,13.23
2023-05-23T09:03:04.806Z,8.83
2023-05-23T09:05:45.714Z,9.87
2023-05-23T09:08:15.268Z,10.77
2023-05-23T09:10:43.210Z,9.53
2023-05-23T09:13:12.508Z,13.67
2023-05-23T09:15:57.725Z,11.10
2023-05-23T09:18:26.134Z,10.70
2023-05-23T09:20:55.150Z,14.93
2023-05-23T09:23:22.756Z,14.77
2023-05-23T09:25:50.508Z,12.83
2023-05-23T09:28:18.651Z,17.17
2023-05-23T09:30:46.593Z,20.60
2023-05-23T09:33:15.457Z,17.63
2023-05-23T09:35:45.767Z,24.63
2023-05-23T09:38:14.745Z,17.00
2023-05-23T09:40:46.259Z,21.47
2023-05-23T09:43:13.951Z,15.13
2023-05-23T09:45:41.634Z,21.33
2023-05-23T09:48:13.171Z,18.80
2023-05-23T09:50:41.195Z,17.17
2023-05-23T09:53:09.007Z,16.60
2023-05-23T09:55:40.399Z,14.90
2023-05-23T09:58:08.694Z,15.83
2023-05-23T10:00:36.695Z,15.20
2023-05-23T10:03:12.582Z,15.53
2023-05-23T10:05:43.714Z,7.80
2023-05-23T10:08:15.282Z,9.37
2023-05-23T10:11:33.798Z,10.07
2023-05-23T10:14:03.711Z,10.33
2023-05-23T10:16:43.112Z,9.23
2023-05-23T10:19:17.728Z,12.63
2023-05-23T10:21:49.712Z,11.80
2023-05-23T10:24:18.035Z,10.67
2023-05-23T10:26:46.259Z,12.47
2023-05-23T10:29:17.857Z,9.53
2023-05-23T10:31:45.980Z,12.50
2023-05-23T10:34:24.078Z,8.67
2023-05-23T10:36:58.754Z,12.07
2023-05-23T10:39:33.292Z,11.37
2023-05-23T10:42:04.056Z,15.63
2023-05-23T10:44:33.395Z,15.43
2023-05-23T10:47:02.307Z,8.93
2023-05-23T10:49:39.916Z,7.90
2023-05-23T10:52:07.847Z,11.90
2023-05-23T10:54:36.507Z,8.80
2023-05-23T10:57:04.523Z,13.33
2023-05-23T10:59:33.730Z,14.57
2023-05-23T11:02:03.200Z,5.70
2023-05-23T11:04:31.110Z,9.27
2023-05-23T11:06:59.826Z,15.07
2023-05-23T11:09:27.685Z,9.10
2023-05-23T11:12:06.034Z,16.67
2023-05-23T11:14:56.283Z,11.30
2023-05-23T11:17:50.164Z,8.03
2023-05-23T11:20:23.047Z,11.13
2023-05-23T11:22:55.102Z,10.83
2023-05-23T11:25:23.696Z,7.57
2023-05-23T11:27:51.298Z,22.10
2023-05-23T11:30:23.848Z,10.07
2023-05-23T11:32:53.538Z,7.50
2023-05-23T11:35:22.449Z,18.17
2023-05-23T11:37:50.143Z,10.40
2023-05-23T11:40:29.391Z,13.70
2023-05-23T11:42:57.675Z,8.20
2023-05-23T11:45:27.898Z,7.67
2023-05-23T11:47:56.282Z,17.83
2023-05-23T11:50:25.538Z,14.47
2023-05-23T11:52:53.188Z,11.57
2023-05-23T11:55:22.278Z,12.30
2023-05-23T11:57:50.549Z,16.53
2023-05-23T12:00:20.034Z,23.07
2023-05-23T12:02:49.838Z,9.40
2023-05-23T12:05:20.190Z,22.67
2023-05-23T12:07:50.555Z,19.00
2023-05-23T12:10:20.498Z,27.53
2023-05-23T12:12:48.755Z,20.60
2023-05-23T12:15:17.330Z,16.80
2023-05-23T12:17:46.145Z,14.57
2023-05-23T12:20:16.489Z,11.73
2023-05-23T12:22:51.664Z,11.00
2023-05-23T12:25:19.865Z,16.90
2023-05-23T12:27:49.696Z,16.83
2023-05-23T12:33:54.262Z,16.83
2023-05-23T12:36:28.317Z,13.17
2023-05-23T12:39:03.839Z,14.73
2023-05-23T12:41:31.853Z,8.67
2023-05-23T12:44:01.519Z,12.43
2023-05-23T12:46:29.138Z,23.33
2023-05-23T12:48:57.331Z,14.67
2023-05-23T12:51:27.244Z,10.80
2023-05-23T12:53:55.542Z,16.83
2023-05-23T12:56:23.636Z,11.87
2023-05-23T12:58:51.687Z,13.40
2023-05-23T13:01:19.573Z,12.50
2023-05-23T13:03:47.965Z,16.60
2023-05-23T13:06:16.026Z,14.33
2023-05-23T13:08:50.927Z,15.27
2023-05-23T13:11:19.542Z,19.10
2023-05-23T13:13:47.790Z,14.23
2023-05-23T13:16:15.973Z,12.37
2023-05-23T13:18:43.736Z,10.73
2023-05-23T13:21:11.608Z,12.23
2023-05-23T13:23:39.486Z,11.00
2023-05-23T13:26:08.722Z,20.90
2023-05-23T13:28:36.814Z,17.47
2023-05-23T13:31:04.504Z,16.83
2023-05-23T13:33:32.153Z,17.13
2023-05-23T13:35:59.990Z,12.57
2023-05-23T13:38:27.951Z,27.13
2023-05-23T13:40:56.266Z,14.00
2023-05-23T13:43:28.364Z,14.80
2023-05-23T13:45:56.150Z,10.57
2023-05-23T13:48:24.201Z,12.30
2023-05-23T13:50:52.089Z,15.60
2023-05-23T13:53:21.651Z,11.70
2023-05-23T13:55:49.968Z,12.00
2023-05-23T13:58:17.738Z,12.30
2023-05-23T14:00:47.955Z,15.93
2023-05-23T14:03:16.158Z,11.10
2023-05-23T14:05:44.067Z,18.57
2023-05-23T14:08:13.552Z,17.57
2023-05-23T14:10:42.636Z,18.43
2023-05-23T14:13:13.882Z,15.10
2023-05-23T14:15:44.910Z,18.93
2023-05-23T14:18:17.614Z,13.33
2023-05-23T14:20:46.696Z,14.67
2023-05-23T14:23:14.308Z,17.13
2023-05-23T14:25:42.880Z,13.47
2023-05-23T14:28:10.678Z,14.70
2023-05-23T14:30:38.384Z,17.33
2023-05-23T14:33:07.336Z,20.07
2023-05-23T14:35:39.844Z,7.30
2023-05-23T14:38:07.807Z,23.67
2023-05-23T14:40:35.729Z,16.40
2023-05-23T14:43:03.270Z,19.60
2023-05-23T14:45:31.597Z,16.47
2023-05-23T14:47:59.480Z,14.13
2023-05-23T14:50:27.414Z,15.97
2023-05-23T14:52:56.683Z,11.33
2023-05-23T14:55:24.585Z,14.00
2023-05-23T14:57:52.552Z,20.03
2023-05-23T15:00:20.769Z,16.10
2023-05-23T15:02:48.463Z,20.53
2023-05-23T15:05:17.174Z,15.00
2023-05-23T15:07:45.543Z,11.97
2023-05-23T15:10:14.536Z,19.90
2023-05-23T15:12:42.501Z,11.13
2023-05-23T15:15:10.963Z,14.50
2023-05-23T15:17:38.742Z,18.20
2023-05-23T15:20:08.361Z,15.17
2023-05-23T15:22:39.860Z,19.73
2023-05-23T15:25:08.860Z,13.53
2023-05-23T15:27:37.727Z,20.33
2023-05-23T15:30:06.445Z,18.27
2023-05-23T15:32:34.350Z,16.43
2023-05-23T15:35:01.938Z,14.17
2023-05-23T15:37:29.795Z,12.47
2023-05-23T15:39:58.662Z,17.03
2023-05-23T15:42:26.328Z,15.60
2023-05-23T15:44:56.755Z,18.27
2023-05-23T15:47:24.767Z,15.17
2023-05-23T15:49:52.597Z,15.67
2023-05-23T15:52:20.425Z,16.07
2023-05-23T15:54:48.028Z,15.57
2023-05-23T15:57:16.112Z,14.50
2023-05-23T15:59:43.798Z,18.37
2023-05-23T16:02:12.854Z,21.67
2023-05-23T16:04:41.825Z,17.60
2023-05-23T16:07:09.904Z,18.43
2023-05-23T16:09:37.629Z,26.50
2023-05-23T16:12:05.966Z,19.37
2023-05-23T16:14:33.654Z,18.10
2023-05-23T16:17:02.773Z,16.37
2023-05-23T16:19:32.547Z,17.13
2023-05-23T16:22:00.701Z,16.93
2023-05-23T16:24:28.610Z,11.40
2023-05-23T16:26:56.533Z,18.00
2023-05-23T16:29:24.178Z,21.77
2023-05-23T16:31:51.793Z,18.03
2023-05-23T16:34:19.378Z,19.77
2023-05-23T16:36:48.391Z,18.33
2023-05-23T16:39:17.260Z,13.50
2023-05-23T16:41:45.140Z,17.93
2023-05-23T16:44:12.900Z,17.57
2023-05-23T16:46:40.686Z,13.33
2023-05-23T16:49:08.606Z,20.23
2023-05-23T16:51:36.269Z,24.83
2023-05-23T16:54:05.469Z,9.43
2023-05-23T16:56:33.773Z,16.03
2023-05-23T16:59:01.768Z,15.63
2023-05-23T17:01:30.595Z,19.83
2023-05-23T17:03:58.347Z,14.70
2023-05-23T17:06:26.485Z,17.30
2023-05-23T17:08:54.504Z,21.10
2023-05-23T17:11:23.572Z,29.03
2023-05-23T17:13:54.127Z,13.70
2023-05-23T17:16:22.111Z,18.87
2023-05-23T17:18:49.963Z,16.03
2023-05-23T17:21:17.776Z,19.17
2023-05-23T17:23:46.395Z,15.37
2023-05-23T17:26:14.420Z,20.53
2023-05-23T17:28:43.816Z,31.13
2023-05-23T17:31:11.992Z,16.60
2023-05-23T17:33:44.175Z,27.10
2023-05-23T17:36:12.181Z,20.57
2023-05-23T17:38:40.188Z,19.60
2023-05-23T17:41:07.805Z,17.23
2023-05-23T17:43:35.339Z,147.33
2023-05-23T17:46:04.224Z,25.47
2023-05-23T17:48:45.712Z,13.90
2023-05-23T17:51:14.654Z,15.77
2023-05-23T17:53:42.527Z,15.40
2023-05-23T17:56:10.320Z,19.20
2023-05-23T17:58:39.725Z,20.97
2023-05-23T18:01:11.582Z,22.50
2023-05-23T18:03:39.381Z,20.20
2023-05-23T18:06:08.414Z,18.50
2023-05-23T18:08:36.177Z,25.20
2023-05-23T18:11:03.961Z,21.47
2023-05-23T18:13:31.542Z,19.37
2023-05-23T18:15:59.049Z,18.47
2023-05-23T18:18:28.320Z,24.50
2023-05-23T18:20:56.302Z,17.67
2023-05-23T18:23:24.027Z,11.77
2023-05-23T18:25:52.691Z,23.30
2023-05-23T18:28:20.352Z,16.23
2023-05-23T18:30:48.065Z,16.23
2023-05-23T18:33:15.787Z,22.73
2023-05-23T18:35:46.668Z,18.00
2023-05-23T18:38:14.464Z,19.20
2023-05-23T18:40:42.296Z,16.10
2023-05-23T18:43:12.746Z,22.07
2023-05-23T18:45:40.871Z,18.70
2023-05-23T18:48:09.048Z,14.60
2023-05-23T18:50:38.455Z,14.00
2023-05-23T18:53:07.420Z,17.90
2023-05-23T18:55:34.973Z,14.50
2023-05-23T18:58:02.783Z,20.13
2023-05-23T19:00:30.518Z,15.70
2023-05-23T19:02:58.291Z,15.87
2023-05-23T19:05:27.260Z,24.50
2023-05-23T19:07:54.990Z,16.00
2023-05-23T19:10:24.122Z,19.43
2023-05-23T19:12:51.970Z,21.23
2023-05-23T19:15:19.756Z,17.30
2023-05-23T19:17:48.428Z,25.30
2023-05-23T19:20:18.390Z,19.93
2023-05-23T19:22:51.454Z,25.83
2023-05-23T19:25:20.842Z,15.80
2023-05-23T19:27:50.156Z,18.13
2023-05-23T19:30:17.829Z,16.17
2023-05-23T19:32:46.054Z,18.83
2023-05-23T19:35:17.125Z,16.90
2023-05-23T19:37:45.239Z,18.13
2023-05-23T19:40:13.873Z,18.53
2023-05-23T19:42:41.850Z,18.53
2023-05-23T19:45:12.517Z,23.03
2023-05-23T19:47:41.291Z,21.40
2023-05-23T19:50:10.898Z,22.23
2023-05-23T19:52:38.535Z,29.20
2023-05-23T19:55:07.558Z,17.07
2023-05-23T19:57:35.690Z,23.07
2023-05-23T20:00:04.693Z,19.77
2023-05-23T20:02:33.916Z,32.57
2023-05-23T20:05:01.734Z,15.50
2023-05-23T20:07:29.915Z,23.03
2023-05-23T20:09:57.555Z,22.63
2023-05-23T20:12:25.314Z,13.43
2023-05-23T20:14:53.170Z,19.17
2023-05-23T20:17:20.959Z,27.40
2023-05-23T20:19:50.481Z,31.77
2023-05-23T20:22:19.384Z,18.73
2023-05-23T20:24:47.610Z,25.20
2023-05-23T20:27:15.791Z,36.17
2023-05-23T20:29:43.432Z,16.67
2023-05-23T20:32:11.104Z,17.43
2023-05-23T20:34:38.851Z,27.90
2023-05-23T20:37:07.791Z,23.70
2023-05-23T20:39:35.463Z,21.30
2023-05-23T20:42:03.035Z,34.50
2023-05-23T20:44:31.836Z,18.30
2023-05-23T20:46:59.521Z,32.93
2023-05-23T20:49:27.668Z,25.03
2023-05-23T20:51:55.317Z,20.00
2023-05-23T20:54:24.453Z,32.87
2023-05-23T20:56:53.864Z,21.63
2023-05-23T20:59:21.538Z,27.07
2023-05-23T21:01:49.285Z,20.90
2023-05-23T21:04:18.712Z,27.93
2023-05-23T21:06:46.540Z,33.53
2023-05-23T21:09:16.080Z,23.30
2023-05-23T21:11:45.325Z,29.23
2023-05-23T21:14:13.866Z,21.53
2023-05-23T21:16:41.434Z,32.20
2023-05-23T21:19:09.161Z,25.93
2023-05-23T21:21:37.549Z,30.17
2023-05-23T21:24:06.430Z,28.03
2023-05-23T21:26:34.281Z,41.83
2023-05-23T21:29:03.317Z,28.23
2023-05-23T21:31:40.737Z,29.37
2023-05-23T21:34:22.478Z,26.23
2023-05-23T21:36:51.659Z,33.27
2023-05-23T21:39:19.577Z,28.43
2023-05-23T21:41:47.350Z,23.63
2023-05-23T21:44:17.782Z,34.57
2023-05-23T21:46:45.629Z,24.27
2023-05-23T21:49:13.702Z,29.67
2023-05-23T21:51:42.018Z,24.47
2023-05-23T21:54:09.728Z,30.43
2023-05-23T21:56:37.384Z,32.87
2023-05-23T21:59:05.054Z,30.57
2023-05-23T22:01:34.011Z,28.43
2023-05-23T22:04:01.831Z,25.80
2023-05-23T22:06:29.901Z,33.40
2023-05-23T22:08:57.532Z,29.67
2023-05-23T22:11:25.815Z,32.00
2023-05-23T22:13:54.621Z,34.80
2023-05-23T22:16:22.362Z,27.53
2023-05-23T22:18:52.131Z,32.33
2023-05-23T22:21:19.958Z,25.53
2023-05-23T22:23:47.601Z,26.83
2023-05-23T22:26:15.203Z,30.77
2023-05-23T22:28:42.725Z,33.40
2023-05-23T22:31:12.751Z,24.23
2023-05-23T22:33:40.738Z,30.87
2023-05-23T22:36:10.454Z,18.90
2023-05-23T22:38:39.251Z,33.20
2023-05-23T22:41:07.021Z,27.30
2023-05-23T22:43:34.618Z,45.90
2023-05-23T22:46:02.245Z,24.43
2023-05-23T22:48:33.464Z,33.13
2023-05-23T22:51:02.130Z,38.33
2023-05-23T22:53:31.515Z,29.70
2023-05-23T22:55:59.370Z,32.43
2023-05-23T22:58:27.113Z,36.00
2023-05-23T23:00:54.660Z,35.63
2023-05-23T23:03:22.404Z,26.90
2023-05-23T23:05:50.583Z,27.53
2023-05-23T23:08:19.329Z,35.97
2023-05-23T23:10:48.379Z,35.23
2023-05-23T23:13:16.007Z,30.20
2023-05-23T23:15:43.990Z,27.20
2023-05-23T23:18:13.419Z,33.30
2023-05-23T23:20:41.573Z,33.53
2023-05-23T23:23:09.507Z,23.80
2023-05-23T23:25:37.742Z,28.73
2023-05-23T23:28:06.748Z,38.43
2023-05-23T23:30:34.346Z,30.80
2023-05-23T23:33:02.402Z,28.20
2023-05-23T23:35:30.255Z,28.30
2023-05-23T23:37:57.812Z,30.50
2023-05-23T23:40:25.469Z,32.43
2023-05-23T23:42:53.024Z,29.77
2023-05-23T23:45:22.213Z,34.07
2023-05-23T23:47:49.815Z,22.30
2023-05-23T23:50:17.335Z,34.13
2023-05-23T23:52:44.862Z,31.30
2023-05-23T23:55:12.468Z,32.30
2023-05-23T23:57:40.030Z,33.50
